KBGD/BGD METAR and TAF weather

Enter ICAO airport designator
Station Type Date Time Source
KBGD METAR 2018/12/12 16:51 UTC NOAA

KBGD 121651Z AUTO VRB05KT 10SM CLR 08/M06 A2989 RMK AO2 SLP118 T00781061


Station Type Date Time Source
KBGD Decoded METAR 2018/12/12 16:51 UTC NOAA

BORGER HUTCHINSON CO AIRPORT , TX, United States (KBGD) 35-42N 101-24W 927M
Dec 12, 2018 - 11:51 AM EST / 2018.12.12 1651 UTC
Wind: Variable at 6 MPH (5 KT):0
Visibility: 10 mile(s):0
Sky conditions: clear
Temperature: 46.0 F (7.8 C)
Dew Point: 21.0 F (-6.1 C)
Relative Humidity: 36%
Pressure (altimeter): 29.89 in. Hg (1012 hPa)
ob: KBGD 121651Z AUTO VRB05KT 10SM CLR 08/M06 A2989 RMK AO2 SLP118 T00781061
cycle: 17

Station Type Date Time Source
KBGD TAF UTC NOAA

Error!


Example: see airport list